高雄國際航空站 - 塔台/地面席

METAR RCKH 160800Z 27010KT 9999 FEW016 SCT090 28/20 Q1011 NOSIG RMK 29011KT/R09 A2986(Z)=

站台狀態:Offline
最後更新:2021-04-16 16:00:01